createdAt,value
2022-12-26T06:49:23.166Z,99730.50
2022-12-26T07:16:33.286Z,99726.50
2022-12-26T07:19:00.181Z,99729.28
2022-12-26T08:23:30.658Z,99814.78
2022-12-26T08:25:57.700Z,99804.31
2022-12-26T08:31:17.469Z,99830.53
2022-12-26T08:42:40.078Z,99839.06
2022-12-26T08:54:32.323Z,99838.63
2022-12-26T08:56:58.851Z,99833.31
2022-12-26T08:59:25.582Z,99834.06
2022-12-26T09:01:52.109Z,99824.09
2022-12-26T09:04:18.668Z,99833.75
2022-12-26T09:06:45.119Z,99832.75
2022-12-26T09:09:12.560Z,99834.47
2022-12-26T09:11:39.951Z,99832.66
2022-12-26T09:14:06.696Z,99848.56
2022-12-26T09:16:49.632Z,99853.88
2022-12-26T09:19:17.861Z,99872.31
2022-12-26T09:21:45.393Z,99867.00
2022-12-26T09:24:14.677Z,99895.91
2022-12-26T09:26:41.643Z,99904.94
2022-12-26T09:29:09.220Z,99911.81
2022-12-26T09:31:35.725Z,99919.56
2022-12-26T09:34:04.585Z,99909.06
2022-12-26T09:36:33.864Z,99908.97
2022-12-26T09:39:01.096Z,99906.91
2022-12-26T09:41:36.073Z,99890.91
2022-12-26T09:44:15.865Z,99894.16
2022-12-26T09:47:16.358Z,99900.53
2022-12-26T09:49:47.707Z,99910.53
2022-12-26T09:52:22.709Z,99912.34
2022-12-26T09:54:54.757Z,99904.38
2022-12-26T09:57:34.386Z,99915.84
2022-12-26T10:00:05.033Z,99922.09
2022-12-26T10:02:39.816Z,99930.06
2022-12-26T10:05:06.728Z,99928.25
2022-12-26T10:07:41.163Z,99911.38
2022-12-26T10:10:30.889Z,99912.34
2022-12-26T10:13:13.562Z,99900.16
2022-12-26T10:15:45.201Z,99896.78
2022-12-26T10:18:21.684Z,99891.47
2022-12-26T10:21:03.128Z,99888.72
2022-12-26T10:23:33.834Z,99893.16
2022-12-26T10:26:05.921Z,99896.88
2022-12-26T10:28:36.154Z,99898.81
2022-12-26T10:31:15.733Z,99892.66
2022-12-26T10:33:48.997Z,99907.59
2022-12-26T10:36:27.309Z,99906.63
2022-12-26T10:38:55.227Z,99890.75
2022-12-26T10:41:28.190Z,99896.78
2022-12-26T10:43:54.861Z,99918.06
2022-12-26T10:46:24.013Z,99900.38
2022-12-26T10:48:50.665Z,99926.03
2022-12-26T10:51:17.356Z,99918.06
2022-12-26T10:53:48.879Z,99926.03
2022-12-26T10:56:18.253Z,99923.28
2022-12-26T10:58:45.734Z,99925.72
2022-12-26T11:01:37.818Z,99924.63
2022-12-26T11:04:44.423Z,99913.06
2022-12-26T11:07:11.501Z,99912.22
2022-12-26T11:09:43.809Z,99932.47
2022-12-26T11:12:39.607Z,99918.25
2022-12-26T11:15:19.096Z,99921.66
2022-12-26T11:17:47.840Z,99916.25
2022-12-26T11:20:14.165Z,99910.94
2022-12-26T11:22:43.012Z,99921.44
2022-12-26T11:25:09.339Z,99910.81
2022-12-26T11:27:43.022Z,99906.81
2022-12-26T11:30:28.158Z,99917.31
2022-12-26T11:33:14.080Z,99914.31
2022-12-26T11:35:53.577Z,99921.19
2022-12-26T11:38:44.079Z,99913.16
2022-12-26T11:41:33.623Z,99929.56
2022-12-26T11:44:09.008Z,99929.31
2022-12-26T11:46:54.862Z,99930.78
2022-12-26T11:49:34.861Z,99929.72
2022-12-26T11:52:33.833Z,99915.84
2022-12-26T11:55:00.451Z,99926.66
2022-12-26T11:57:32.435Z,99926.91
2022-12-26T12:00:17.806Z,99920.66
2022-12-26T12:02:44.357Z,99914.28
2022-12-26T12:05:19.219Z,99918.72
2022-12-26T12:08:36.761Z,99922.13
2022-12-26T12:11:25.588Z,99913.91
2022-12-26T12:13:58.589Z,99906.91
2022-12-26T12:16:49.655Z,99909.69
2022-12-26T12:19:38.225Z,99909.81
2022-12-26T12:22:25.739Z,99916.41
2022-12-26T12:24:56.576Z,99911.13
2022-12-26T12:27:36.395Z,99907.72
2022-12-26T12:30:10.759Z,99905.81
2022-12-26T12:33:13.132Z,99902.31
2022-12-26T12:35:53.185Z,99899.44
2022-12-26T12:38:33.063Z,99897.38
2022-12-26T12:41:18.151Z,99904.63
2022-12-26T12:44:09.117Z,99904.13
2022-12-26T12:46:51.401Z,99903.38
2022-12-26T12:49:44.348Z,99906.03
2022-12-26T12:52:32.720Z,99898.06
2022-12-26T12:55:10.746Z,99902.41
2022-12-26T12:57:43.575Z,99897.25
2022-12-26T13:00:24.193Z,99897.25
2022-12-26T13:03:10.396Z,99904.25
2022-12-26T13:06:04.615Z,99895.41
2022-12-26T13:08:45.431Z,99895.41
2022-12-26T13:11:20.968Z,99897.88
2022-12-26T13:13:53.772Z,99895.22
2022-12-26T13:16:25.240Z,99886.63
2022-12-26T13:18:55.586Z,99884.81
2022-12-26T13:21:22.624Z,99888.22
2022-12-26T13:24:18.907Z,99879.31
2022-12-26T13:26:49.978Z,99887.13
2022-12-26T13:29:23.889Z,99885.31
2022-12-26T13:31:52.351Z,99887.84
2022-12-26T13:34:21.476Z,99884.88
2022-12-26T13:36:49.880Z,99883.91
2022-12-26T13:39:23.575Z,99874.03
2022-12-26T13:42:26.953Z,99875.09
2022-12-26T13:44:53.950Z,99876.09
2022-12-26T13:47:36.772Z,99872.44
2022-12-26T13:50:41.155Z,99874.50
2022-12-26T13:53:26.940Z,99851.22
2022-12-26T13:56:12.664Z,99858.34
2022-12-26T13:58:50.360Z,99853.88
2022-12-26T14:01:27.184Z,99852.22
2022-12-26T14:03:56.794Z,99854.75
2022-12-26T14:06:55.554Z,99860.66
2022-12-26T14:09:35.859Z,99841.50
2022-12-26T14:12:11.327Z,99851.34
2022-12-26T14:14:56.432Z,99861.34
2022-12-26T14:17:48.878Z,99860.75
2022-12-26T14:20:39.759Z,99870.47
2022-12-26T14:23:15.629Z,99863.28
2022-12-26T14:25:50.563Z,99867.94
2022-12-26T14:28:38.122Z,99871.19
2022-12-26T14:31:23.435Z,99874.03
2022-12-26T14:34:27.105Z,99872.56
2022-12-26T14:37:09.965Z,99871.00
2022-12-26T14:40:18.246Z,99869.53
2022-12-26T14:43:12.462Z,99876.84
2022-12-26T14:45:53.211Z,99879.50
2022-12-26T14:48:19.665Z,99876.97
2022-12-26T14:51:13.780Z,99875.06
2022-12-26T14:53:40.460Z,99875.91
2022-12-26T14:56:10.209Z,99885.69
2022-12-26T14:58:53.239Z,99880.69
2022-12-26T15:01:22.860Z,99886.84
2022-12-26T15:04:14.855Z,99889.47
2022-12-26T15:06:56.470Z,99882.41
2022-12-26T15:09:42.012Z,99886.13
2022-12-26T15:12:39.309Z,99883.34
2022-12-26T15:15:28.064Z,99880.47
2022-12-26T15:18:37.735Z,99881.53
2022-12-26T15:21:21.375Z,99892.13
2022-12-26T15:25:17.711Z,99891.41
2022-12-26T15:27:39.933Z,99897.16
2022-12-26T15:30:51.908Z,99902.56
2022-12-26T15:33:40.329Z,99901.38
2022-12-26T15:36:42.224Z,99905.94
2022-12-26T15:39:30.278Z,99900.88
2022-12-26T15:42:11.908Z,99911.59
2022-12-26T15:44:42.819Z,99896.75
2022-12-26T15:47:37.483Z,99903.72
2022-12-26T15:50:07.900Z,99916.13
2022-12-26T15:52:37.278Z,99904.72
2022-12-26T15:55:07.180Z,99900.34
2022-12-26T15:57:59.153Z,99887.13
2022-12-26T16:00:50.141Z,99894.44
2022-12-26T16:03:29.329Z,99900.16
2022-12-26T16:06:13.992Z,99893.91
2022-12-26T16:08:59.129Z,99897.38
2022-12-26T16:11:30.352Z,99896.56
2022-12-26T16:14:00.140Z,99910.03
2022-12-26T16:16:30.783Z,99909.41
2022-12-26T16:18:57.492Z,99909.72
2022-12-26T16:21:47.625Z,99909.44
2022-12-26T16:24:16.554Z,99905.63
2022-12-26T16:26:44.226Z,99908.81
2022-12-26T16:29:16.109Z,99907.22
2022-12-26T16:31:42.715Z,99913.06
2022-12-26T16:34:16.585Z,99919.13
2022-12-26T16:36:43.736Z,99926.00
2022-12-26T16:39:11.189Z,99940.69
2022-12-26T16:41:57.281Z,99947.44
2022-12-26T16:44:32.061Z,99954.19
2022-12-26T16:47:07.512Z,99954.81
2022-12-26T16:49:34.377Z,99966.53
2022-12-26T16:52:00.912Z,100020.34
2022-12-26T16:54:39.430Z,100036.09
2022-12-26T16:57:19.168Z,100045.03
2022-12-26T16:59:58.156Z,100039.22
2022-12-26T17:02:27.447Z,100056.50
2022-12-26T17:04:58.564Z,100054.19
2022-12-26T17:07:25.516Z,100063.25
2022-12-26T17:09:56.104Z,100074.50
2022-12-26T17:12:33.270Z,100092.03
2022-12-26T17:15:00.210Z,100086.63
2022-12-26T17:17:32.711Z,100079.16
2022-12-26T17:20:21.591Z,100092.88
2022-12-26T17:22:49.644Z,100092.41
2022-12-26T17:25:29.343Z,100101.34
2022-12-26T17:28:08.003Z,100087.66
2022-12-26T17:30:39.656Z,100084.34
2022-12-26T17:33:12.851Z,100070.47
2022-12-26T17:36:32.908Z,100065.00
2022-12-26T17:38:27.454Z,100058.56
2022-12-26T17:40:55.964Z,100047.47
2022-12-26T17:43:34.225Z,100031.28
2022-12-26T17:46:01.607Z,100016.97
2022-12-26T17:48:28.618Z,100027.38
2022-12-26T17:50:57.735Z,100021.22
2022-12-26T17:53:45.729Z,100053.66
2022-12-26T17:56:21.035Z,100063.44
2022-12-26T17:58:48.615Z,100066.41
2022-12-26T18:01:20.653Z,100069.16
2022-12-26T18:03:48.108Z,100069.25
2022-12-26T18:06:16.449Z,100068.47
2022-12-26T18:08:44.331Z,100067.53
2022-12-26T18:11:12.428Z,100072.91
2022-12-26T18:13:39.064Z,100083.72
2022-12-26T18:16:06.108Z,100087.47
2022-12-26T18:18:36.247Z,100087.47
2022-12-26T18:21:04.043Z,100090.00
2022-12-26T18:23:30.458Z,100092.50
2022-12-26T18:25:59.745Z,100094.94
2022-12-26T18:28:26.096Z,100095.63
2022-12-26T18:30:52.593Z,100103.63
2022-12-26T18:33:19.162Z,100109.84
2022-12-26T18:35:45.635Z,100107.00
2022-12-26T18:38:16.349Z,100106.50
2022-12-26T18:40:48.915Z,100105.50
2022-12-26T18:43:15.370Z,100115.09
2022-12-26T18:45:42.127Z,100107.44
2022-12-26T18:48:13.312Z,100107.72
2022-12-26T18:50:39.820Z,100114.69
2022-12-26T18:53:06.285Z,100114.44
2022-12-26T18:55:32.748Z,100123.94
2022-12-26T18:57:59.163Z,100120.28
2022-12-26T19:00:26.036Z,100118.44
2022-12-26T19:02:52.685Z,100116.63
2022-12-26T19:05:23.784Z,100123.69
2022-12-26T19:07:50.447Z,100134.34
2022-12-26T19:10:19.088Z,100134.41
2022-12-26T19:12:45.951Z,100130.00
2022-12-26T19:15:13.551Z,100139.28
2022-12-26T19:17:41.090Z,100147.69
2022-12-26T19:20:09.702Z,100158.66
2022-12-26T19:22:36.438Z,100167.00
2022-12-26T19:25:02.924Z,100174.31
2022-12-26T19:27:29.685Z,100184.28
2022-12-26T19:29:56.121Z,100175.78
2022-12-26T19:32:22.540Z,100189.06
2022-12-26T19:34:49.026Z,100195.03
2022-12-26T19:37:15.512Z,100203.66
2022-12-26T19:39:41.925Z,100209.13
2022-12-26T19:42:08.337Z,100217.03
2022-12-26T19:44:34.873Z,100219.66
2022-12-26T19:47:12.728Z,100229.97
2022-12-26T19:49:40.491Z,100221.88
2022-12-26T19:52:07.004Z,100240.19
2022-12-26T19:54:33.466Z,100249.78
2022-12-26T19:56:59.878Z,100257.06
2022-12-26T19:59:26.357Z,100261.03
2022-12-26T20:01:52.973Z,100268.09
2022-12-26T20:04:19.525Z,100284.75
2022-12-26T20:06:45.992Z,100285.63
2022-12-26T20:09:13.831Z,100296.94
2022-12-26T20:11:49.211Z,100306.94
2022-12-26T20:14:18.060Z,100311.44
2022-12-26T20:19:31.384Z,100330.97
2022-12-26T20:21:57.863Z,100334.56
2022-12-26T20:24:26.275Z,100345.09
2022-12-26T20:26:52.796Z,100337.94
2022-12-26T20:29:19.258Z,100358.19
2022-12-26T20:31:45.742Z,100368.56
2022-12-26T20:34:12.799Z,100366.69
2022-12-26T20:36:40.043Z,100373.13
2022-12-26T20:39:10.664Z,100378.56
2022-12-26T20:41:37.170Z,100390.09
2022-12-26T20:44:03.646Z,100392.19
2022-12-26T20:46:32.072Z,100412.47
2022-12-26T20:48:59.251Z,100404.56
2022-12-26T20:51:31.739Z,100422.22
2022-12-26T20:54:03.134Z,100415.41
2022-12-26T20:56:29.520Z,100421.75
2022-12-26T20:58:59.076Z,100426.38
2022-12-26T21:01:25.951Z,100431.72
2022-12-26T21:03:53.966Z,100431.00
2022-12-26T21:06:23.163Z,100447.00
2022-12-26T21:08:51.308Z,100448.25
2022-12-26T21:11:23.560Z,100445.25
2022-12-26T21:13:51.364Z,100445.34
2022-12-26T21:16:26.992Z,100456.78
2022-12-26T21:18:53.622Z,100469.28
2022-12-26T21:21:23.472Z,100475.94
2022-12-26T21:23:54.508Z,100495.59
2022-12-26T21:26:20.958Z,100482.84
2022-12-26T21:28:47.613Z,100498.41
2022-12-26T21:31:14.014Z,100506.72
2022-12-26T21:33:44.535Z,100512.28
2022-12-26T21:36:12.988Z,100517.63
2022-12-26T21:38:39.811Z,100528.25
2022-12-26T21:41:11.409Z,100525.94
2022-12-26T21:43:37.968Z,100532.19
2022-12-26T21:46:11.296Z,100540.31
2022-12-26T21:48:37.774Z,100549.19
2022-12-26T21:51:08.475Z,100554.69
2022-12-26T21:53:35.566Z,100559.31
2022-12-26T21:56:06.232Z,100567.50
2022-12-26T21:58:52.666Z,100578.97
2022-12-26T22:01:20.658Z,100584.41
2022-12-26T22:04:05.897Z,100600.38
2022-12-26T22:06:32.377Z,100604.13
2022-12-26T22:08:59.531Z,100611.41
2022-12-26T22:11:44.607Z,100616.03
2022-12-26T22:14:11.119Z,100620.59
2022-12-26T22:16:37.788Z,100623.25
2022-12-26T22:19:04.824Z,100626.91
2022-12-26T22:21:31.325Z,100632.28
2022-12-26T22:23:59.537Z,100639.41
2022-12-26T22:26:27.710Z,100653.63
2022-12-26T22:28:55.124Z,100656.41
2022-12-26T22:31:31.525Z,100666.03
2022-12-26T22:34:00.988Z,100673.06
2022-12-26T22:36:27.791Z,100674.09
2022-12-26T22:38:54.425Z,100672.53
2022-12-26T22:41:21.125Z,100677.78
2022-12-26T22:43:47.499Z,100692.00
2022-12-26T22:46:14.184Z,100686.03
2022-12-26T22:48:41.636Z,100694.13
2022-12-26T22:51:08.289Z,100696.09
2022-12-26T22:53:34.903Z,100689.28
2022-12-26T22:56:04.905Z,100692.84
2022-12-26T22:58:32.140Z,100698.22
2022-12-26T23:00:59.084Z,100699.94
2022-12-26T23:03:26.704Z,100697.38
2022-12-26T23:05:53.849Z,100700.88
2022-12-26T23:08:23.813Z,100706.97
2022-12-26T23:10:53.407Z,100721.94
2022-12-26T23:13:20.102Z,100732.44
2022-12-26T23:16:02.510Z,100735.00
2022-12-26T23:19:01.544Z,100731.56
2022-12-26T23:21:40.351Z,100741.28
2022-12-26T23:24:09.194Z,100748.50
2022-12-26T23:26:35.869Z,100749.50
2022-12-26T23:29:20.952Z,100750.34
2022-12-26T23:31:47.407Z,100741.69
2022-12-26T23:34:14.305Z,100744.38
2022-12-26T23:36:40.778Z,100745.34
2022-12-26T23:39:07.425Z,100753.22
2022-12-26T23:41:33.953Z,100745.34
2022-12-26T23:44:00.786Z,100749.78
2022-12-26T23:46:27.241Z,100748.06
2022-12-26T23:48:53.657Z,100755.00
2022-12-26T23:51:20.168Z,100750.53
2022-12-26T23:53:46.647Z,100755.66
2022-12-26T23:56:13.475Z,100748.69
2022-12-26T23:58:40.159Z,100751.25
